Time;durP1;ratioP1;P1;durP2;ratioP2;P2;SDS_P1;SDS_P2;PMS_P1;PMS_P2;Temp;Humidity;BMP_temperature;BMP_pressure;BME280_temperature;BME280_humidity;BME280_pressure;Samples;Min_cycle;Max_cycle;Signal;HPM_P1;HPM_P2
2020/12/14 00:00:12;;;;;;;0.90;0.40;;;12.90;99.90;;;;;;5071731;28;20251;-75
2020/12/14 00:02:39;;;;;;;1.00;0.50;;;12.90;99.90;;;;;;5073209;28;20242;-75
2020/12/14 00:05:07;;;;;;;0.53;0.40;;;12.90;99.90;;;;;;5072292;28;20203;-75
2020/12/14 00:07:33;;;;;;;1.00;0.40;;;12.80;99.90;;;;;;5073005;28;20231;-75
2020/12/14 00:10:01;;;;;;;0.53;0.50;;;12.80;99.90;;;;;;5072680;28;20231;-75
2020/12/14 00:12:29;;;;;;;1.50;0.70;;;12.80;99.90;;;;;;5072279;28;20199;-75
2020/12/14 00:14:55;;;;;;;1.67;0.93;;;12.80;99.90;;;;;;5072120;28;20203;-75
2020/12/14 00:17:22;;;;;;;1.93;0.90;;;12.80;99.90;;;;;;5071868;28;20238;-75
2020/12/14 00:19:49;;;;;;;1.43;0.63;;;12.80;99.90;;;;;;5055838;28;20259;-75
2020/12/14 00:22:15;;;;;;;1.40;0.80;;;12.80;99.90;;;;;;5054766;28;20246;-75
2020/12/14 00:24:41;;;;;;;0.90;0.50;;;12.80;99.90;;;;;;5072305;28;20239;-75
2020/12/14 00:27:08;;;;;;;1.57;0.60;;;12.80;99.90;;;;;;5052615;28;20281;-75
2020/12/14 00:29:35;;;;;;;1.03;0.60;;;12.70;99.90;;;;;;5052071;28;20234;-75
2020/12/14 00:32:02;;;;;;;2.00;0.67;;;12.70;99.90;;;;;;5060504;28;20229;-75
2020/12/14 00:34:28;;;;;;;2.63;0.80;;;12.70;99.90;;;;;;5071888;28;20237;-75
2020/12/14 00:36:55;;;;;;;2.73;0.70;;;12.70;99.90;;;;;;5058957;28;20651;-75
2020/12/14 00:39:21;;;;;;;3.33;0.40;;;12.60;99.90;;;;;;5072203;28;20261;-75
2020/12/14 00:41:48;;;;;;;0.47;0.30;;;12.60;99.90;;;;;;5072080;28;20231;-75
2020/12/14 00:44:14;;;;;;;3.03;0.43;;;12.50;99.90;;;;;;5071214;28;20230;-75
2020/12/14 00:46:44;;;;;;;1.50;0.50;;;12.50;99.90;;;;;;5072325;28;20234;-76
2020/12/14 00:49:11;;;;;;;0.97;0.37;;;12.40;99.90;;;;;;5071091;28;20237;-75
2020/12/14 00:51:37;;;;;;;2.30;0.40;;;12.40;99.90;;;;;;5072195;28;20727;-75
2020/12/14 00:54:04;;;;;;;0.73;0.13;;;12.30;99.90;;;;;;5065003;28;20608;-75
2020/12/14 00:56:30;;;;;;;0.60;0.30;;;12.30;99.90;;;;;;5059201;28;20234;-75
2020/12/14 00:58:57;;;;;;;2.13;0.30;;;12.20;99.90;;;;;;5071539;28;20310;-75
2020/12/14 01:01:23;;;;;;;1.23;0.30;;;12.20;99.90;;;;;;5071569;28;20277;-75
2020/12/14 01:03:50;;;;;;;2.50;0.30;;;12.20;99.90;;;;;;5069612;28;20285;-75
2020/12/14 01:06:17;;;;;;;0.30;0.10;;;12.20;99.90;;;;;;5066632;28;20234;-75
2020/12/14 01:08:43;;;;;;;2.67;0.30;;;12.20;99.90;;;;;;5062995;28;20223;-75
2020/12/14 01:11:10;;;;;;;1.23;0.40;;;12.10;99.90;;;;;;5071489;28;20242;-75
2020/12/14 01:13:36;;;;;;;1.33;0.40;;;12.10;99.90;;;;;;5071787;28;20276;-75
2020/12/14 01:16:07;;;;;;;1.70;0.40;;;12.10;99.90;;;;;;5072299;28;20235;-75
2020/12/14 01:18:33;;;;;;;1.83;0.30;;;12.00;99.90;;;;;;5071709;28;20864;-75
2020/12/14 01:21:01;;;;;;;0.87;0.27;;;12.00;99.90;;;;;;5071704;28;20241;-75
2020/12/14 01:23:27;;;;;;;0.73;0.30;;;12.00;99.90;;;;;;5064743;28;20638;-75
2020/12/14 01:25:54;;;;;;;0.87;0.30;;;12.00;99.90;;;;;;5071014;28;20328;-75
2020/12/14 01:28:20;;;;;;;1.57;0.27;;;11.90;99.90;;;;;;5071229;28;20285;-75
2020/12/14 01:30:47;;;;;;;2.27;0.50;;;11.90;99.90;;;;;;5071959;28;20223;-75
2020/12/14 01:33:13;;;;;;;2.00;0.47;;;11.90;99.90;;;;;;5071189;28;20264;-75
2020/12/14 01:35:40;;;;;;;1.47;0.30;;;11.90;99.90;;;;;;5051961;28;20235;-75
2020/12/14 01:38:07;;;;;;;2.60;0.47;;;11.80;99.90;;;;;;5057911;28;20721;-75
2020/12/14 01:40:33;;;;;;;1.73;0.33;;;11.80;99.90;;;;;;5071590;28;20775;-75
2020/12/14 01:43:00;;;;;;;3.57;0.40;;;11.80;99.90;;;;;;5071476;28;20239;-75
2020/12/14 01:45:26;;;;;;;1.63;0.23;;;11.80;99.90;;;;;;5055202;28;20609;-75
2020/12/14 01:47:53;;;;;;;1.77;0.20;;;11.80;99.90;;;;;;5051795;28;20235;-75
2020/12/14 01:50:20;;;;;;;3.00;0.30;;;11.80;99.90;;;;;;5051697;28;20231;-75
2020/12/14 01:52:47;;;;;;;0.63;0.20;;;11.80;99.90;;;;;;5071524;28;20578;-75
2020/12/14 01:55:18;;;;;;;1.57;0.43;;;11.80;99.90;;;;;;5071502;28;20292;-76
2020/12/14 01:57:45;;;;;;;1.47;0.40;;;11.70;99.90;;;;;;5070660;28;20232;-75
2020/12/14 02:00:12;;;;;;;1.17;0.20;;;11.80;99.90;;;;;;5071569;28;20705;-76
2020/12/14 02:02:39;;;;;;;1.00;0.30;;;11.80;99.90;;;;;;5071355;28;20231;-76
2020/12/14 02:05:08;;;;;;;2.10;0.50;;;11.80;99.90;;;;;;5071726;28;20231;-76
2020/12/14 02:07:35;;;;;;;1.57;0.40;;;11.80;99.90;;;;;;5069304;28;20257;-76
2020/12/14 02:10:01;;;;;;;3.47;0.50;;;11.80;99.90;;;;;;5064417;28;20192;-76
2020/12/14 02:12:29;;;;;;;1.10;0.33;;;11.70;99.90;;;;;;5074935;28;20231;-76
2020/12/14 02:14:57;;;;;;;2.57;0.50;;;11.70;99.90;;;;;;5074921;28;20241;-76
2020/12/14 02:17:25;;;;;;;5.83;0.60;;;11.70;99.90;;;;;;5074978;28;20230;-75
2020/12/14 02:19:53;;;;;;;2.20;0.50;;;11.70;99.90;;;;;;5074792;28;20310;-75
2020/12/14 02:22:21;;;;;;;1.20;0.33;;;11.70;99.90;;;;;;5068380;28;20253;-76
2020/12/14 02:24:55;;;;;;;2.27;0.53;;;11.70;99.90;;;;;;5055265;28;20321;-75
2020/12/14 02:27:22;;;;;;;2.07;0.53;;;11.60;99.90;;;;;;5054356;28;20238;-75
2020/12/14 02:29:49;;;;;;;2.87;0.60;;;11.60;99.90;;;;;;5054171;28;20617;-75
2020/12/14 02:32:16;;;;;;;0.93;0.20;;;11.60;99.90;;;;;;5057673;28;20238;-75
2020/12/14 02:34:44;;;;;;;2.17;0.40;;;11.60;99.90;;;;;;5073900;28;20290;-75
2020/12/14 02:37:12;;;;;;;3.13;0.73;;;11.60;99.90;;;;;;5074091;28;20669;-76
2020/12/14 02:39:39;;;;;;;2.87;0.57;;;11.60;99.90;;;;;;5072926;28;20250;-76
2020/12/14 02:42:08;;;;;;;3.83;0.70;;;11.60;99.90;;;;;;5074783;28;20231;-76
2020/12/14 02:44:35;;;;;;;3.07;0.77;;;11.60;99.90;;;;;;5074766;28;20203;-76
2020/12/14 02:47:01;;;;;;;4.33;1.20;;;11.70;99.90;;;;;;5073874;28;20239;-76
2020/12/14 02:49:30;;;;;;;4.83;1.20;;;11.70;99.90;;;;;;5074559;28;20237;-76
2020/12/14 02:51:57;;;;;;;4.43;1.37;;;11.70;99.90;;;;;;5074165;28;20235;-76
2020/12/14 02:54:23;;;;;;;4.63;1.27;;;11.70;99.90;;;;;;5073804;28;20237;-76
2020/12/14 02:56:50;;;;;;;4.10;1.50;;;11.60;99.90;;;;;;5074233;28;20235;-76
2020/12/14 02:59:18;;;;;;;7.90;1.53;;;11.70;99.90;;;;;;5074139;28;20718;-76
2020/12/14 03:01:45;;;;;;;4.60;1.43;;;11.70;99.90;;;;;;5074272;28;20230;-76
2020/12/14 03:04:12;;;;;;;6.40;1.40;;;11.70;99.90;;;;;;5074557;28;20560;-76
2020/12/14 03:06:38;;;;;;;8.10;1.40;;;11.70;99.90;;;;;;5074208;28;20242;-76
2020/12/14 03:09:05;;;;;;;7.90;1.60;;;11.70;99.90;;;;;;5072778;28;20225;-76
2020/12/14 03:11:31;;;;;;;5.90;1.40;;;11.70;99.90;;;;;;5074429;28;20237;-76
2020/12/14 03:13:58;;;;;;;8.87;1.70;;;11.70;99.90;;;;;;5073397;28;20235;-76
2020/12/14 03:16:26;;;;;;;6.07;1.47;;;11.70;99.90;;;;;;5074071;28;20203;-76
2020/12/14 03:18:52;;;;;;;9.20;1.40;;;11.70;99.90;;;;;;5073755;28;20245;-76
2020/12/14 03:21:19;;;;;;;8.03;1.83;;;11.70;99.90;;;;;;5067173;28;20231;-76
2020/12/14 03:23:45;;;;;;;7.00;1.63;;;11.70;99.90;;;;;;5053529;28;20638;-76
2020/12/14 03:26:16;;;;;;;8.47;1.53;;;11.70;99.90;;;;;;5053679;28;20255;-76
2020/12/14 03:28:42;;;;;;;10.83;1.53;;;11.70;99.90;;;;;;5053595;28;20231;-76
2020/12/14 03:31:09;;;;;;;7.63;1.30;;;11.70;99.90;;;;;;5053382;28;20243;-76
2020/12/14 03:33:37;;;;;;;8.33;1.73;;;11.70;99.90;;;;;;5053607;28;20325;-76
2020/12/14 03:36:04;;;;;;;10.17;1.60;;;11.70;99.90;;;;;;5053400;28;20235;-76
2020/12/14 03:38:30;;;;;;;12.03;1.83;;;11.70;99.90;;;;;;5053334;28;20231;-76
2020/12/14 03:40:57;;;;;;;9.83;1.70;;;11.70;99.90;;;;;;5053033;28;20314;-76
2020/12/14 03:43:23;;;;;;;13.33;1.50;;;11.70;99.90;;;;;;5065088;28;20237;-76
2020/12/14 03:45:49;;;;;;;9.77;1.53;;;11.70;99.90;;;;;;5073306;28;20242;-76
2020/12/14 03:48:17;;;;;;;10.57;1.90;;;11.70;99.90;;;;;;5071950;28;20638;-76
2020/12/14 03:50:46;;;;;;;13.60;1.77;;;11.70;99.90;;;;;;5053155;28;20337;-76
2020/12/14 03:53:13;;;;;;;12.83;1.63;;;11.80;99.90;;;;;;5059355;28;20341;-76
2020/12/14 03:55:40;;;;;;;13.80;2.03;;;11.80;99.90;;;;;;5073269;28;20206;-76
2020/12/14 03:58:07;;;;;;;10.30;1.53;;;11.80;99.90;;;;;;5064290;28;20211;-76
2020/12/14 04:00:34;;;;;;;12.43;1.50;;;11.70;99.90;;;;;;5057106;28;20251;-76
2020/12/14 04:03:04;;;;;;;10.13;1.50;;;11.70;99.90;;;;;;5052516;28;20204;-76
2020/12/14 04:05:31;;;;;;;12.30;1.50;;;11.70;99.90;;;;;;5052470;28;20192;-76
2020/12/14 04:07:58;;;;;;;10.60;1.23;;;11.70;99.90;;;;;;5056714;28;20245;-76
2020/12/14 04:10:25;;;;;;;14.47;1.77;;;11.70;99.90;;;;;;5072571;28;20683;-76
2020/12/14 04:12:51;;;;;;;12.40;1.53;;;11.70;99.90;;;;;;5066615;28;20636;-76
2020/12/14 04:15:17;;;;;;;11.90;1.50;;;11.70;99.90;;;;;;5066693;28;20231;-82
2020/12/14 04:17:44;;;;;;;11.60;1.47;;;11.70;99.90;;;;;;5053743;28;20224;-82
2020/12/14 04:20:10;;;;;;;9.60;1.80;;;11.80;99.90;;;;;;5060597;28;20250;-82
2020/12/14 04:22:37;;;;;;;10.03;1.60;;;11.70;99.90;;;;;;5069159;28;20252;-82
2020/12/14 04:25:04;;;;;;;12.30;1.80;;;11.80;99.90;;;;;;5055286;28;20231;-82
2020/12/14 04:27:30;;;;;;;13.70;1.70;;;11.70;99.90;;;;;;5072218;28;20822;-81
2020/12/14 04:29:57;;;;;;;11.07;1.77;;;11.70;99.90;;;;;;5066451;28;20238;-82
2020/12/14 04:32:23;;;;;;;15.47;1.90;;;11.70;99.90;;;;;;5053195;28;20235;-81
2020/12/14 04:34:50;;;;;;;17.13;2.10;;;11.70;99.90;;;;;;5054394;28;20741;-81
2020/12/14 04:37:16;;;;;;;10.13;1.93;;;11.70;99.90;;;;;;5060908;28;20226;-81
2020/12/14 04:39:43;;;;;;;10.63;1.80;;;11.70;99.90;;;;;;5072296;28;20734;-82
2020/12/14 04:42:10;;;;;;;12.97;1.63;;;11.70;99.90;;;;;;5072726;28;20625;-82
2020/12/14 04:44:38;;;;;;;10.90;2.03;;;11.70;99.90;;;;;;5071176;28;20202;-81
2020/12/14 04:47:05;;;;;;;17.50;1.90;;;11.70;99.90;;;;;;5072236;28;20282;-81
2020/12/14 04:49:33;;;;;;;13.60;1.87;;;11.70;99.90;;;;;;5072049;28;20268;-81
2020/12/14 04:52:02;;;;;;;12.80;1.97;;;11.60;99.90;;;;;;5072787;28;20195;-82
2020/12/14 04:54:30;;;;;;;15.73;1.77;;;11.60;99.90;;;;;;5072384;28;20195;-81
2020/12/14 04:57:04;;;;;;;15.20;2.17;;;11.60;99.90;;;;;;5072658;28;20206;-81
2020/12/14 04:59:32;;;;;;;17.40;2.13;;;11.50;99.90;;;;;;5071509;28;20713;-81
2020/12/14 05:02:04;;;;;;;13.73;2.00;;;11.50;99.90;;;;;;5072158;28;20238;-82
2020/12/14 05:04:30;;;;;;;16.43;2.33;;;11.50;99.90;;;;;;5071770;28;20242;-81
2020/12/14 05:06:57;;;;;;;15.77;2.43;;;11.60;99.90;;;;;;5072193;28;20410;-82
2020/12/14 05:09:23;;;;;;;11.87;1.90;;;11.60;99.90;;;;;;5064067;28;20569;-82
2020/12/14 05:11:50;;;;;;;15.73;1.97;;;11.60;99.90;;;;;;5055603;28;20677;-82
2020/12/14 05:14:18;;;;;;;11.73;2.70;;;11.60;99.90;;;;;;5071672;28;20202;-82
2020/12/14 05:16:47;;;;;;;18.53;2.00;;;11.60;99.90;;;;;;5059883;28;20667;-82
2020/12/14 05:19:24;;;;;;;15.30;2.30;;;11.50;99.90;;;;;;5071540;28;20254;-82
2020/12/14 05:21:53;;;;;;;17.00;2.43;;;11.50;99.90;;;;;;5071594;28;20206;-82
2020/12/14 05:24:25;;;;;;;12.10;2.03;;;11.50;99.90;;;;;;5062436;28;20608;-82
2020/12/14 05:26:52;;;;;;;14.77;2.13;;;11.50;99.90;;;;;;5070179;28;20215;-81
2020/12/14 05:29:21;;;;;;;14.70;2.63;;;11.50;99.90;;;;;;5071973;28;20273;-82
2020/12/14 05:32:18;;;;;;;15.33;2.20;;;11.50;99.90;;;;;;5071499;28;20210;-81
2020/12/14 05:34:46;;;;;;;15.57;2.27;;;11.60;99.90;;;;;;4990171;28;20244;-82
2020/12/14 05:37:14;;;;;;;19.90;2.30;;;11.70;99.90;;;;;;4990358;28;20209;-82
2020/12/14 05:39:42;;;;;;;15.30;2.83;;;11.60;99.90;;;;;;4989700;28;20241;-82
2020/12/14 05:42:15;;;;;;;15.83;2.50;;;11.60;99.90;;;;;;4990467;28;20287;-82
2020/12/14 05:44:43;;;;;;;14.97;3.17;;;11.60;99.90;;;;;;4993022;28;20708;-81
2020/12/14 05:47:24;;;;;;;12.03;2.57;;;11.50;99.90;;;;;;4994239;28;20677;-81
2020/12/14 05:49:51;;;;;;;13.70;2.50;;;11.50;99.90;;;;;;4993884;28;20687;-81
2020/12/14 05:52:19;;;;;;;15.10;2.80;;;11.40;99.90;;;;;;4994407;28;20233;-82
2020/12/14 05:54:51;;;;;;;11.63;2.20;;;11.30;99.90;;;;;;4993343;28;20204;-81
2020/12/14 05:57:31;;;;;;;11.83;2.37;;;11.30;99.90;;;;;;4982049;28;20260;-82
2020/12/14 06:00:04;;;;;;;11.40;2.60;;;11.20;99.90;;;;;;4989301;28;20241;-83
2020/12/14 06:02:32;;;;;;;14.40;3.00;;;11.20;99.90;;;;;;4993906;28;20252;-82
2020/12/14 06:05:02;;;;;;;10.20;2.07;;;11.20;99.90;;;;;;4993171;28;20687;-82
2020/12/14 06:07:29;;;;;;;14.87;2.40;;;11.20;99.90;;;;;;4993861;28;20205;-82
2020/12/14 06:10:03;;;;;;;15.00;2.83;;;11.20;99.90;;;;;;5070982;28;20638;-82
2020/12/14 06:12:31;;;;;;;10.73;2.37;;;11.20;99.90;;;;;;5074295;28;20198;-82
2020/12/14 06:15:01;;;;;;;13.87;3.00;;;11.20;99.90;;;;;;5074961;28;20231;-83
2020/12/14 06:17:29;;;;;;;13.97;2.33;;;11.20;99.90;;;;;;5074190;28;20230;-81
2020/12/14 06:20:03;;;;;;;10.87;2.50;;;11.20;99.90;;;;;;5074732;28;20261;-81
2020/12/14 06:22:31;;;;;;;9.80;2.27;;;11.20;99.90;;;;;;5073582;28;20223;-82
2020/12/14 06:25:00;;;;;;;10.90;2.17;;;11.10;99.90;;;;;;5074595;28;20202;-82
2020/12/14 06:27:27;;;;;;;10.47;2.30;;;11.20;99.90;;;;;;5074923;28;20234;-82
2020/12/14 06:29:54;;;;;;;13.20;2.90;;;11.20;99.90;;;;;;5073778;28;20202;-83
2020/12/14 06:32:35;;;;;;;11.43;2.53;;;11.10;99.90;;;;;;5073567;28;20203;-83
2020/12/14 06:35:04;;;;;;;15.03;2.80;;;11.20;99.90;;;;;;5064778;28;20222;-82
2020/12/14 06:37:48;;;;;;;8.30;2.30;;;11.10;99.90;;;;;;5067076;28;20298;-82
2020/12/14 06:40:14;;;;;;;17.47;3.30;;;11.10;99.90;;;;;;5068806;28;20246;-82
2020/12/14 06:42:41;;;;;;;10.63;3.20;;;11.10;99.90;;;;;;5064187;28;20685;-82
2020/12/14 06:45:12;;;;;;;13.40;3.30;;;11.00;99.90;;;;;;5073214;28;20259;-82
2020/12/14 06:47:44;;;;;;;13.07;3.03;;;10.90;99.90;;;;;;5061156;28;20200;-82
2020/12/14 06:50:25;;;;;;;13.17;3.47;;;10.80;99.90;;;;;;5071560;28;20230;-82
2020/12/14 06:52:52;;;;;;;11.90;3.43;;;10.80;99.90;;;;;;5065915;28;20634;-82
2020/12/14 06:55:41;;;;;;;15.13;3.63;;;10.80;99.90;;;;;;5070084;28;20247;-82
2020/12/14 06:58:09;;;;;;;12.10;3.67;;;10.80;99.90;;;;;;5066974;28;20261;-82
2020/12/14 07:00:36;;;;;;;11.87;3.23;;;10.90;99.90;;;;;;5053547;28;20226;-81
2020/12/14 07:03:02;;;;;;;14.60;3.23;;;10.80;99.90;;;;;;5068209;28;20230;-82
2020/12/14 07:05:36;;;;;;;14.60;3.50;;;10.80;99.90;;;;;;5072863;28;20195;-82
2020/12/14 07:08:03;;;;;;;15.93;3.50;;;10.80;99.90;;;;;;5072477;28;20238;-82
2020/12/14 07:10:31;;;;;;;15.80;3.73;;;10.80;99.90;;;;;;5071412;28;20222;-82
2020/12/14 07:12:59;;;;;;;18.20;3.83;;;10.90;99.90;;;;;;5066436;28;20599;-81
2020/12/14 07:15:31;;;;;;;16.13;4.07;;;10.90;99.90;;;;;;5071798;28;20670;-82
2020/12/14 07:18:06;;;;;;;20.97;4.27;;;10.90;99.90;;;;;;5067495;28;20289;-82
2020/12/14 07:20:34;;;;;;;16.97;4.13;;;11.00;99.90;;;;;;5069765;28;20246;-82
2020/12/14 07:23:08;;;;;;;21.37;3.87;;;11.00;99.90;;;;;;5068326;28;20675;-82
2020/12/14 07:25:35;;;;;;;18.03;4.13;;;10.90;99.90;;;;;;5066388;28;20642;-82
2020/12/14 07:28:03;;;;;;;16.80;4.37;;;10.90;99.90;;;;;;5060054;28;20249;-81
2020/12/14 07:30:31;;;;;;;15.63;3.97;;;10.90;99.90;;;;;;5070041;28;20206;-81
2020/12/14 07:32:59;;;;;;;19.70;4.77;;;10.90;99.90;;;;;;5061934;28;20195;-82
2020/12/14 07:35:26;;;;;;;19.20;4.40;;;10.90;99.90;;;;;;5058014;28;20202;-82
2020/12/14 07:37:52;;;;;;;21.50;4.47;;;10.90;99.90;;;;;;5061234;28;20230;-82
2020/12/14 07:40:20;;;;;;;19.00;5.03;;;11.00;99.90;;;;;;5071849;28;20255;-81
2020/12/14 07:42:48;;;;;;;22.17;5.40;;;10.90;99.90;;;;;;5065968;28;20238;-82
2020/12/14 07:45:19;;;;;;;17.27;4.83;;;11.00;99.90;;;;;;5070857;28;20199;-82
2020/12/14 07:47:47;;;;;;;19.30;4.60;;;11.00;99.90;;;;;;5069565;28;20191;-82
2020/12/14 07:50:16;;;;;;;16.27;4.90;;;11.00;99.90;;;;;;5071557;28;20246;-82
2020/12/14 07:52:43;;;;;;;26.73;4.50;;;11.00;99.90;;;;;;5070862;28;20230;-81
2020/12/14 07:55:12;;;;;;;21.90;4.53;;;10.90;99.90;;;;;;5068775;28;20249;-82
2020/12/14 07:57:41;;;;;;;20.80;4.73;;;11.00;99.90;;;;;;5067434;28;20207;-82
2020/12/14 08:00:10;;;;;;;27.90;5.10;;;11.00;99.90;;;;;;5061101;28;20310;-82
2020/12/14 08:02:39;;;;;;;15.50;4.27;;;11.00;99.90;;;;;;5065269;28;20238;-82
2020/12/14 08:05:07;;;;;;;21.00;4.20;;;11.10;99.90;;;;;;5070184;28;20191;-82
2020/12/14 08:07:43;;;;;;;20.60;4.57;;;11.00;99.90;;;;;;5067409;28;20226;-82
2020/12/14 08:10:10;;;;;;;22.07;4.80;;;11.10;99.90;;;;;;5066573;28;20222;-82
2020/12/14 08:12:37;;;;;;;26.13;5.53;;;11.10;99.90;;;;;;5068355;28;20205;-82
2020/12/14 08:15:08;;;;;;;18.63;4.70;;;11.10;99.90;;;;;;5062848;28;20242;-82
2020/12/14 08:17:36;;;;;;;23.07;5.80;;;11.00;99.90;;;;;;5069708;28;20290;-82
2020/12/14 08:20:05;;;;;;;22.57;5.77;;;11.00;99.90;;;;;;5065179;28;20650;-82
2020/12/14 08:22:33;;;;;;;25.63;6.17;;;11.00;99.90;;;;;;5067333;28;20206;-82
2020/12/14 08:25:01;;;;;;;23.37;5.60;;;11.00;99.90;;;;;;5069279;28;20199;-82
2020/12/14 08:27:46;;;;;;;16.00;4.80;;;11.00;99.90;;;;;;5069374;28;20215;-82
2020/12/14 08:30:16;;;;;;;19.93;5.03;;;11.00;99.90;;;;;;5053582;28;20222;-83
2020/12/14 08:32:43;;;;;;;25.40;5.33;;;11.00;99.90;;;;;;5067003;28;20231;-82
2020/12/14 08:35:22;;;;;;;25.37;5.07;;;11.00;99.90;;;;;;5066088;28;20290;-82
2020/12/14 08:38:01;;;;;;;22.67;5.37;;;11.00;99.90;;;;;;5064457;28;20732;-82
2020/12/14 08:40:28;;;;;;;24.80;5.43;;;11.10;99.90;;;;;;5068011;28;20260;-82
2020/12/14 08:43:05;;;;;;;24.83;5.70;;;11.10;99.90;;;;;;5064521;28;20219;-82
2020/12/14 08:45:33;;;;;;;21.70;5.43;;;11.10;99.90;;;;;;5065734;28;20919;-82
2020/12/14 08:48:00;;;;;;;23.17;5.50;;;11.10;99.90;;;;;;5069127;28;20203;-82
2020/12/14 08:50:26;;;;;;;23.43;5.17;;;11.20;99.90;;;;;;5070420;28;20209;-81
2020/12/14 08:52:59;;;;;;;23.20;5.40;;;11.20;99.90;;;;;;5068409;28;20222;-81
2020/12/14 08:55:35;;;;;;;25.97;4.93;;;11.30;99.90;;;;;;5067210;28;20292;-81
2020/12/14 08:58:01;;;;;;;31.33;5.43;;;11.30;99.90;;;;;;5068734;28;20241;-81
2020/12/14 09:00:28;;;;;;;24.73;4.73;;;11.30;99.90;;;;;;5065073;28;20702;-82
2020/12/14 09:03:00;;;;;;;29.97;5.20;;;11.30;99.90;;;;;;5068465;28;20223;-81
2020/12/14 09:05:27;;;;;;;26.63;5.40;;;11.40;99.90;;;;;;5068635;28;20201;-82
2020/12/14 09:07:53;;;;;;;28.77;7.30;;;11.40;99.90;;;;;;5067510;28;20223;-82
2020/12/14 09:10:23;;;;;;;25.07;4.67;;;11.40;99.90;;;;;;5070103;28;20666;-81
2020/12/14 09:12:50;;;;;;;33.30;5.77;;;11.40;99.90;;;;;;5059985;28;20291;-82
2020/12/14 09:15:17;;;;;;;25.47;5.10;;;11.40;99.90;;;;;;5066034;28;20195;-82
2020/12/14 09:17:45;;;;;;;17.90;4.43;;;11.40;99.90;;;;;;5063231;28;20202;-82
2020/12/14 09:20:12;;;;;;;28.83;5.67;;;11.40;99.90;;;;;;5065490;28;20239;-83
2020/12/14 09:22:38;;;;;;;24.40;5.87;;;11.40;99.90;;;;;;5063197;28;20242;-83
2020/12/14 09:25:07;;;;;;;20.83;5.10;;;11.40;99.90;;;;;;5063635;28;20631;-83
2020/12/14 09:27:33;;;;;;;22.60;5.60;;;11.40;99.90;;;;;;5066653;28;20234;-83
2020/12/14 09:30:00;;;;;;;29.23;6.27;;;11.30;99.90;;;;;;5067023;28;20256;-83
2020/12/14 09:32:26;;;;;;;27.40;7.17;;;11.30;99.90;;;;;;5070005;28;20226;-83
2020/12/14 09:34:52;;;;;;;31.53;6.83;;;11.30;99.90;;;;;;5064750;28;20191;-83
2020/12/14 09:37:20;;;;;;;24.93;6.80;;;11.40;99.90;;;;;;5062054;28;20239;-83
2020/12/14 09:39:46;;;;;;;30.63;6.07;;;11.40;99.90;;;;;;5065249;28;20237;-83
2020/12/14 09:42:13;;;;;;;27.33;6.50;;;11.50;99.90;;;;;;5062573;28;20204;-83
2020/12/14 09:44:40;;;;;;;23.83;5.47;;;11.50;99.90;;;;;;5061522;28;20636;-83
2020/12/14 09:47:06;;;;;;;22.40;6.13;;;11.50;99.90;;;;;;5067939;28;20869;-83
2020/12/14 09:49:33;;;;;;;30.17;6.27;;;11.60;99.90;;;;;;5069097;28;20237;-83
2020/12/14 09:51:59;;;;;;;24.67;6.27;;;11.60;99.90;;;;;;5067158;28;20231;-83
2020/12/14 09:54:26;;;;;;;26.97;6.30;;;11.60;99.90;;;;;;5060438;28;20273;-82
2020/12/14 09:56:53;;;;;;;26.17;5.93;;;11.60;99.90;;;;;;5068942;28;20642;-83
2020/12/14 09:59:19;;;;;;;25.47;6.13;;;11.70;99.90;;;;;;5063196;28;20200;-83
2020/12/14 10:01:46;;;;;;;27.70;6.40;;;11.60;99.90;;;;;;5065637;28;20246;-83
2020/12/14 10:04:12;;;;;;;29.03;6.60;;;11.60;99.90;;;;;;5066098;28;20701;-83
2020/12/14 10:06:39;;;;;;;26.00;7.00;;;11.60;99.90;;;;;;5062608;28;20203;-83
2020/12/14 10:09:05;;;;;;;30.93;6.90;;;11.60;99.90;;;;;;5067160;28;20233;-83
2020/12/14 10:11:36;;;;;;;25.17;6.60;;;11.60;99.90;;;;;;5067880;28;20381;-83
2020/12/14 10:14:03;;;;;;;23.47;5.70;;;11.70;99.90;;;;;;5067782;28;20206;-84
2020/12/14 10:16:30;;;;;;;20.47;6.40;;;11.80;99.90;;;;;;5067681;28;20202;-83
2020/12/14 10:18:56;;;;;;;21.20;5.77;;;11.80;99.90;;;;;;5058604;28;20219;-83
2020/12/14 10:21:22;;;;;;;26.03;6.23;;;11.90;99.90;;;;;;5068209;28;20227;-84
2020/12/14 10:23:49;;;;;;;21.33;5.87;;;11.90;99.90;;;;;;5063894;28;20226;-84
2020/12/14 10:26:17;;;;;;;23.83;5.77;;;11.90;99.90;;;;;;5064830;28;20289;-84
2020/12/14 10:28:44;;;;;;;20.87;6.20;;;11.90;99.90;;;;;;5066612;28;20223;-83
2020/12/14 10:31:10;;;;;;;22.70;5.93;;;12.00;99.90;;;;;;5073384;28;20222;-83
2020/12/14 10:33:38;;;;;;;24.73;5.90;;;12.10;99.90;;;;;;5069018;28;20258;-83
2020/12/14 10:36:08;;;;;;;23.70;5.93;;;12.10;99.90;;;;;;5073171;28;20266;-83
2020/12/14 10:38:35;;;;;;;26.53;6.23;;;12.20;99.90;;;;;;5072639;28;20203;-84
2020/12/14 10:41:01;;;;;;;22.57;6.50;;;12.30;99.90;;;;;;5071833;28;20726;-83
2020/12/14 10:43:28;;;;;;;24.17;6.17;;;12.20;99.90;;;;;;5070737;28;20243;-83
2020/12/14 10:45:56;;;;;;;20.10;6.27;;;12.20;99.90;;;;;;5064517;28;20619;-83
2020/12/14 10:48:23;;;;;;;23.60;6.07;;;12.20;99.90;;;;;;5064381;28;20230;-83
2020/12/14 10:50:49;;;;;;;23.73;5.90;;;12.10;99.90;;;;;;5071799;28;20219;-83
2020/12/14 10:53:16;;;;;;;24.33;6.57;;;12.10;99.90;;;;;;5067560;28;20729;-83
2020/12/14 10:55:42;;;;;;;20.67;7.07;;;12.00;99.90;;;;;;5065288;28;20191;-84
2020/12/14 10:58:09;;;;;;;21.70;6.07;;;12.00;99.90;;;;;;5064879;28;20245;-83
2020/12/14 11:00:35;;;;;;;23.37;6.27;;;12.00;99.90;;;;;;5072581;28;20297;-83
2020/12/14 11:03:03;;;;;;;22.00;6.00;;;12.00;99.90;;;;;;5070881;28;20203;-83
2020/12/14 11:05:30;;;;;;;19.93;6.40;;;12.10;99.90;;;;;;5069282;28;20246;-83
2020/12/14 11:07:57;;;;;;;22.10;5.50;;;12.10;99.90;;;;;;5072209;28;20645;-83
2020/12/14 11:10:23;;;;;;;22.07;6.17;;;12.10;99.90;;;;;;5063351;28;20203;-82
2020/12/14 11:12:50;;;;;;;20.40;5.67;;;12.10;99.90;;;;;;5071018;28;20227;-83
2020/12/14 11:15:16;;;;;;;24.57;5.87;;;12.10;99.90;;;;;;5066768;28;20224;-83
2020/12/14 11:17:43;;;;;;;22.83;5.57;;;12.20;99.90;;;;;;5064881;28;20619;-84
2020/12/14 11:20:12;;;;;;;16.60;5.30;;;12.20;99.90;;;;;;5071069;28;20219;-83
2020/12/14 11:22:39;;;;;;;15.33;5.07;;;12.20;99.90;;;;;;5064035;28;20211;-83
2020/12/14 11:25:06;;;;;;;25.90;6.27;;;12.30;99.90;;;;;;5070571;28;20258;-84
2020/12/14 11:27:32;;;;;;;20.50;5.33;;;12.30;99.90;;;;;;5067185;28;20292;-83
2020/12/14 11:29:59;;;;;;;21.77;5.83;;;12.30;99.90;;;;;;5062670;28;20238;-84
2020/12/14 11:32:27;;;;;;;15.43;4.50;;;12.30;99.90;;;;;;5063707;28;20234;-84
2020/12/14 11:34:53;;;;;;;16.93;4.53;;;12.40;99.90;;;;;;5068879;28;21001;-84
2020/12/14 11:37:21;;;;;;;17.90;5.00;;;12.30;99.90;;;;;;5070760;28;20244;-83
2020/12/14 11:39:47;;;;;;;17.40;4.80;;;12.30;99.90;;;;;;5067414;28;20231;-84
2020/12/14 11:42:14;;;;;;;17.57;5.17;;;12.30;99.90;;;;;;5069749;28;20288;-83
2020/12/14 11:44:40;;;;;;;17.00;5.03;;;12.40;99.90;;;;;;5064481;28;20236;-84
2020/12/14 11:47:07;;;;;;;14.70;4.50;;;12.30;99.90;;;;;;5065211;28;20195;-83
2020/12/14 11:49:34;;;;;;;18.97;4.60;;;12.40;99.90;;;;;;5070824;28;20298;-87
2020/12/14 11:52:01;;;;;;;20.00;5.23;;;12.40;99.90;;;;;;5065713;28;20191;-84
2020/12/14 11:54:29;;;;;;;10.07;4.03;;;12.30;99.90;;;;;;5067032;28;20291;-84
2020/12/14 11:56:55;;;;;;;18.33;4.80;;;12.30;99.90;;;;;;5069296;28;20223;-84
2020/12/14 11:59:22;;;;;;;11.73;4.03;;;12.30;99.90;;;;;;5072087;28;20625;-85
2020/12/14 12:01:50;;;;;;;13.30;4.23;;;12.30;99.90;;;;;;5072053;28;20226;-84
2020/12/14 12:04:16;;;;;;;11.40;4.37;;;12.20;99.90;;;;;;5054916;28;20198;-84
2020/12/14 12:06:43;;;;;;;10.00;3.97;;;12.20;99.90;;;;;;5063763;28;20632;-84
2020/12/14 12:09:09;;;;;;;15.47;4.30;;;12.20;99.90;;;;;;5064197;28;20284;-85
2020/12/14 12:11:37;;;;;;;14.10;4.37;;;12.30;99.90;;;;;;5068413;28;20198;-84
2020/12/14 12:14:03;;;;;;;15.93;4.30;;;12.40;99.90;;;;;;5070797;28;20239;-84
2020/12/14 12:16:30;;;;;;;12.77;4.40;;;12.40;99.90;;;;;;5070054;28;20607;-84
2020/12/14 12:18:56;;;;;;;15.03;4.10;;;12.50;99.90;;;;;;5067833;28;20238;-84
2020/12/14 12:21:22;;;;;;;13.73;4.50;;;12.50;99.90;;;;;;5062864;28;20306;-83
2020/12/14 12:23:49;;;;;;;15.07;4.40;;;12.50;99.90;;;;;;5061588;28;20287;-83
2020/12/14 12:26:16;;;;;;;14.03;4.23;;;12.50;99.90;;;;;;5069585;28;20222;-84
2020/12/14 12:28:44;;;;;;;10.23;3.90;;;12.40;99.90;;;;;;5068266;28;20285;-82
2020/12/14 12:31:10;;;;;;;9.70;3.87;;;12.40;99.90;;;;;;5068534;28;20248;-82
2020/12/14 12:33:37;;;;;;;13.07;4.43;;;12.30;99.90;;;;;;5062790;28;20235;-83
2020/12/14 12:36:08;;;;;;;11.20;4.10;;;12.40;99.90;;;;;;5065658;28;20238;-83
2020/12/14 12:38:34;;;;;;;11.33;4.23;;;12.30;99.90;;;;;;5069973;28;20302;-83
2020/12/14 12:41:01;;;;;;;9.33;3.50;;;12.30;99.90;;;;;;5063517;28;20314;-83
2020/12/14 12:43:27;;;;;;;12.00;4.53;;;12.30;99.90;;;;;;5063314;28;20683;-82